Weather reports worldwide

Advertisment
UFS Deutsche Bucht, Germany (10007): temperature & dewpoint: 14.06.2019 06:00:00 - 20.06.2019 06:00:00 (CEST)UFS Deutsche Bucht, Germany (10007): wind speed & gusts: 14.06.2019 06:00:00 - 20.06.2019 06:00:00 (CEST)UFS Deutsche Bucht, Germany (10007): wind direction: 14.06.2019 06:00:00 - 20.06.2019 06:00:00 (CEST)UFS Deutsche Bucht, Germany (10007): reduced air pressure: 14.06.2019 06:00:00 - 20.06.2019 06:00:00 (CEST)UFS Deutsche Bucht, Germany (10007): sunshine duration: 14.06.2019 06:00:00 - 20.06.2019 06:00:00 (CEST)
Date & Time tt [°C] td [°C] ff [km/h] ff [kn] fx [km/h] fx [kn] dd ppp [hPa] sd [min]
20.06.2019 06:00:00 - - - - - - - - -
20.06.2019 05:00:00 - - - - - - - - -
20.06.2019 04:00:00 - - - - - - - - -
20.06.2019 03:00:00 - - - - - - - - -
20.06.2019 02:00:00 - - - - - - - - -
20.06.2019 01:00:00 - - - - - - - - -
20.06.2019 00:00:00 - - - - - - - - -
19.06.2019 23:00:00 16,7 15,4 11 6 - - - 1006,5 0
19.06.2019 22:00:00 16,9 15,5 14 8 - - - 1006,2 24
19.06.2019 21:00:00 17,5 15,7 14 8 - - - 1006,2 0
19.06.2019 20:00:00 18,1 16,1 11 6 - - - 1006,0 0
19.06.2019 19:00:00 18,4 16,3 7 4 - - - 1005,9 18
19.06.2019 18:00:00 18,3 16,7 11 6 - - - 1006,5 54
19.06.2019 17:00:00 18,2 16,4 7 4 - - - 1006,2 60
19.06.2019 16:00:00 17,7 16,0 11 6 - - - 1006,0 24
19.06.2019 15:00:00 17,2 15,9 14 8 - - - 1006,2 30
19.06.2019 14:00:00 17,0 15,8 11 6 - - - 1007,1 48
19.06.2019 13:00:00 16,2 15,0 11 6 - - - 1006,8 60
19.06.2019 12:00:00 16,0 15,0 22 12 - - - 1007,0 60
19.06.2019 11:00:00 15,8 14,9 29 16 - - - 1007,4 60
19.06.2019 10:00:00 15,7 14,8 25 14 - - - 1008,2 60
19.06.2019 09:00:00 16,4 14,6 18 10 - - - 1008,9 54
19.06.2019 08:00:00 16,0 14,7 18 10 - - - 1008,7 30
19.06.2019 07:00:00 16,1 14,8 18 10 - - - 1009,1 6
19.06.2019 06:00:00 16,2 14,7 18 10 - - - 1009,5 0
19.06.2019 05:00:00 16,0 14,7 14 8 - - - 1010,3 0
19.06.2019 04:00:00 16,4 14,3 14 8 - - - 1010,7 0
19.06.2019 03:00:00 15,8 14,0 11 6 - - - 1011,3 0
19.06.2019 02:00:00 15,8 14,1 11 6 - - - 1012,0 0
19.06.2019 01:00:00 15,7 14,3 11 6 - - - 1012,7 0
19.06.2019 00:00:00 15,7 14,1 11 6 - - - 1013,3 0
18.06.2019 23:00:00 16,1 13,6 14 8 - - - 1013,6 0
18.06.2019 22:00:00 16,6 13,0 14 8 - - - 1013,7 24
18.06.2019 21:00:00 16,4 14,4 11 6 - - - 1013,9 42
18.06.2019 20:00:00 16,6 14,3 14 8 - - - 1013,8 60
18.06.2019 19:00:00 16,7 14,7 14 8 - - - 1014,1 60
18.06.2019 18:00:00 17,2 14,7 18 10 - - - 1014,2 60
18.06.2019 17:00:00 17,4 15,4 14 8 - - - 1014,5 60
18.06.2019 16:00:00 18,7 15,6 14 8 - - - 1014,7 60
18.06.2019 15:00:00 18,6 15,6 7 4 - - - 1014,9 60
18.06.2019 14:00:00 18,1 15,9 7 4 - - - 1015,0 60
18.06.2019 13:00:00 17,9 15,8 7 4 - - - 1015,1 60
18.06.2019 12:00:00 17,1 15,2 4 2 - - - 1015,2 60
18.06.2019 11:00:00 16,7 15,1 7 4 - - - 1015,2 60
18.06.2019 10:00:00 16,1 14,7 11 6 - - - 1015,5 60
18.06.2019 09:00:00 16,3 14,3 7 4 - - - 1015,6 60
18.06.2019 08:00:00 15,9 14,2 4 2 - - - 1015,9 48
18.06.2019 07:00:00 16,2 14,3 4 2 - - - 1015,9 12
18.06.2019 06:00:00 16,0 14,3 4 2 - - - 1016,0 0
18.06.2019 05:00:00 17,4 14,4 7 4 - - - 1016,2 0
18.06.2019 04:00:00 16,9 14,5 0 0 - - N 1016,2 0
18.06.2019 03:00:00 17,2 14,4 4 2 - - - 1016,4 0
18.06.2019 02:00:00 17,4 14,7 14 8 - - - 1016,8 0
18.06.2019 01:00:00 17,4 14,4 14 8 - - - 1016,8 0
18.06.2019 00:00:00 16,9 14,4 11 6 - - - 1017,2 0
17.06.2019 23:00:00 16,3 14,0 14 8 - - - 1017,5 0
17.06.2019 22:00:00 16,3 13,9 14 8 - - - 1017,8 18
17.06.2019 21:00:00 16,7 13,5 22 12 - - - 1017,9 60
17.06.2019 20:00:00 16,9 13,2 22 12 - - - 1018,5 60
17.06.2019 19:00:00 16,9 13,8 22 12 - - - 1019,0 60
17.06.2019 18:00:00 16,8 13,6 22 12 - - - 1019,5 60
17.06.2019 17:00:00 16,9 14,3 18 10 - - - 1019,9 60
17.06.2019 16:00:00 17,3 13,3 14 8 - - - 1020,4 60
17.06.2019 15:00:00 17,4 12,5 4 2 - - - 1020,7 60
17.06.2019 14:00:00 16,9 13,8 4 2 - - - 1020,8 60
17.06.2019 13:00:00 15,9 14,0 7 4 - - - 1021,1 60
17.06.2019 12:00:00 15,4 13,7 14 8 - - - 1021,4 60
17.06.2019 11:00:00 14,9 13,7 14 8 - - - 1021,4 60
17.06.2019 10:00:00 15,1 13,4 22 12 - - - 1021,3 48
17.06.2019 09:00:00 15,0 13,1 22 12 - - - 1021,2 60
17.06.2019 08:00:00 14,7 13,3 22 12 - - - 1020,9 60
17.06.2019 07:00:00 14,8 13,4 25 14 - - - 1020,8 60
17.06.2019 06:00:00 14,7 13,5 25 14 - - - 1020,7 36
17.06.2019 05:00:00 14,9 13,5 32 18 - - - 1020,5 0
17.06.2019 04:00:00 14,9 13,4 29 16 - - - 1020,3 0
17.06.2019 03:00:00 14,8 13,6 25 14 - - - 1020,5 0
17.06.2019 02:00:00 14,6 13,7 25 14 - - - 1020,3 0
17.06.2019 01:00:00 14,8 13,5 22 12 - - - 1020,4 0
17.06.2019 00:00:00 14,8 13,4 18 10 - - - 1020,4 0
16.06.2019 23:00:00 15,0 13,9 14 8 - - - 1020,4 0
16.06.2019 22:00:00 15,2 13,1 14 8 - - - 1020,4 60
16.06.2019 21:00:00 - - - - - - - - -
16.06.2019 20:00:00 15,8 13,2 11 6 - - - 1020,5 48
16.06.2019 19:00:00 - - - - - - - - -
16.06.2019 18:00:00 16,6 13,5 0 0 - - N 1020,3 42
16.06.2019 17:00:00 15,4 13,8 4 2 - - - 1020,1 24
16.06.2019 16:00:00 16,4 14,3 14 8 - - - 1019,9 24
16.06.2019 15:00:00 16,6 13,7 7 4 - - - 1019,7 60
16.06.2019 14:00:00 15,4 13,4 14 8 - - - 1019,3 54
16.06.2019 13:00:00 15,3 13,6 11 6 - - - 1019,0 60
16.06.2019 12:00:00 14,6 13,3 11 6 - - - 1018,6 60
16.06.2019 11:00:00 14,4 13,0 14 8 - - - 1018,1 60
16.06.2019 10:00:00 14,1 12,9 14 8 - - - 1017,7 60
16.06.2019 09:00:00 14,1 12,9 18 10 - - - 1017,7 48
16.06.2019 08:00:00 14,3 13,1 25 14 - - - 1017,6 54
16.06.2019 07:00:00 14,3 13,2 22 12 - - - 1017,3 42
16.06.2019 06:00:00 14,2 13,1 25 14 - - - 1017,0 24
16.06.2019 05:00:00 14,3 13,4 18 10 - - - 1016,7 0
16.06.2019 04:00:00 14,0 12,8 18 10 - - - 1016,6 0
16.06.2019 03:00:00 13,7 13,0 14 8 - - - 1016,7 0
16.06.2019 02:00:00 13,6 12,8 14 8 - - - 1016,6 0
16.06.2019 01:00:00 13,6 12,4 11 6 - - - 1016,1 0
16.06.2019 00:00:00 14,0 11,5 18 10 - - - 1015,7 0
15.06.2019 23:00:00 13,8 12,3 22 12 - - - 1015,0 0
15.06.2019 22:00:00 13,9 12,8 22 12 - - - 1014,7 0
15.06.2019 21:00:00 13,9 13,0 29 16 - - - 1014,6 0
15.06.2019 20:00:00 14,0 13,2 32 18 - - - 1013,9 24
15.06.2019 19:00:00 13,9 13,3 36 19 47 25 - 1012,7 6
15.06.2019 18:00:00 13,6 13,6 36 19 - - - 1012,0 0
15.06.2019 17:00:00 14,9 14,3 11 6 - - - 1011,3 18
15.06.2019 16:00:00 14,4 14,1 4 2 - - - 1010,7 18
15.06.2019 15:00:00 14,1 13,9 11 6 - - - 1010,5 0
15.06.2019 14:00:00 14,2 13,9 22 12 - - - 1010,4 0
15.06.2019 13:00:00 14,4 14,0 18 10 - - - 1009,7 0
15.06.2019 12:00:00 14,7 14,0 14 8 61 33 - 1009,9 0
15.06.2019 11:00:00 14,8 14,2 14 8 - - - 1010,5 0
15.06.2019 10:00:00 15,2 14,7 32 18 - - - 1008,6 0
15.06.2019 09:00:00 15,1 14,6 25 14 - - - 1010,0 0
15.06.2019 08:00:00 14,9 14,3 25 14 - - - 1010,6 0
15.06.2019 07:00:00 14,6 14,1 25 14 - - - 1010,7 0
15.06.2019 06:00:00 15,4 13,8 25 14 - - - 1011,5 0
15.06.2019 05:00:00 15,2 14,4 25 14 - - - 1012,2 0
15.06.2019 04:00:00 15,4 14,6 25 14 - - - 1012,8 0
15.06.2019 03:00:00 15,3 14,6 25 14 - - - 1013,4 0
15.06.2019 02:00:00 15,3 14,6 22 12 - - - 1014,2 0
15.06.2019 01:00:00 15,4 14,4 18 10 - - - 1014,8 0
15.06.2019 00:00:00 15,3 14,3 14 8 - - - 1015,0 0
14.06.2019 23:00:00 15,8 14,3 22 12 - - - 1015,1 0
14.06.2019 22:00:00 15,9 13,6 22 12 - - - 1015,1 36
14.06.2019 21:00:00 15,9 11,8 18 10 - - - 1015,1 60
14.06.2019 20:00:00 16,1 12,7 18 10 - - - 1015,4 60
14.06.2019 19:00:00 16,1 11,8 18 10 - - - 1014,8 60
14.06.2019 18:00:00 15,2 12,5 14 8 - - - 1014,9 60
14.06.2019 17:00:00 15,1 12,1 18 10 - - - 1015,3 54
14.06.2019 16:00:00 15,1 12,4 18 10 - - - 1015,6 12
14.06.2019 15:00:00 14,8 12,6 18 10 - - - 1016,0 0
14.06.2019 14:00:00 16,3 12,0 4 2 - - - 1016,3 0
14.06.2019 13:00:00 15,0 12,6 11 6 - - - 1016,1 6
14.06.2019 12:00:00 14,8 13,0 11 6 - - - 1015,6 60
14.06.2019 11:00:00 14,4 12,8 14 8 - - - 1015,3 60
14.06.2019 10:00:00 14,2 12,6 14 8 - - - 1015,4 54
14.06.2019 09:00:00 14,0 12,4 18 10 - - - 1015,1 54
14.06.2019 08:00:00 14,0 11,9 18 10 - - - 1014,9 48
14.06.2019 07:00:00 13,9 11,7 18 10 - - - 1014,3 54
14.06.2019 06:00:00 13,9 11,4 25 14 - - - 1014,0 24

tt = temperature
td = dewpoint
ff = wind speed
fx = gusts
dd = wind direction
ppp = reduced air pressure
sd = sunshine duration

Next stations